Surface weather observations from New York State from the past hour:

KALB 181651Z 32015G18KT 10SM FEW120 M03/M19 A2998 RMK AO2 SLP157 T10331189=
KART 181656Z AUTO 00000KT 10SM BKN100 M05/M19 A3003 RMK AO2 SLP178 T10501194=
KBGM 181653Z 35010KT 10SM OVC080 M03/M16 A2992 RMK AO2 SLP155 T10281161=
KBUF 181654Z 24012G21KT 10SM FEW100 FEW180 01/M06 A2996 RMK AO2 SLP155
KDKK 181653Z AUTO 24013G21KT 10SM CLR 03/M09 A2998 RMK AO2 SLP159 T00331089=
KDSV 181654Z AUTO 34008KT 10SM CLR 03/M13 A2996 RMK AO2 SLP162 T00331133=
KELM 181653Z 28007KT 10SM CLR 03/M14 A2996 RMK AO2 SLP154 T00281139=
KELZ 181656Z AUTO 30010G20KT 10SM CLR 02/M14 A2992 RMK AO2 SLP154 T00221139 PNO
KFOK 181653Z 31013G24KT 10SM CLR 01/M19 A2994 RMK AO2 PK WND 29027/1625 SLP154
 T00061194 $=
KFRG 181653Z 34015G25KT 10SM CLR 02/M19 A2994 RMK AO2 SLP138 T00171189=
KFZY 181654Z AUTO 00000KT 10SM FEW048 OVC095 M02/M14 A3001 RMK AO2 SLP171
KGFL 181653Z AUTO 36010KT 10SM CLR M04/M23 A2996 RMK AO2 SLP157 T10391228=
KGTB 181656Z AUTO 00000KT 10SM OVC036 M07/M22 A2999 RMK AO2 SLP170 T10661221 $=
KHPN 181656Z 32013KT 10SM CLR 01/M18 A2992 RMK AO2 SLP140 T00061178=
KHTO 181655Z AUTO 33009G20KT 10SM CLR M01/M18 A2990 RMK AO2 T10081176=
KHWV 181656Z AUTO 30018G23KT 10SM CLR 01/M18 A2993 RMK AO2 SLP136 T00111178=
KIAG 181653Z 22012KT 10SM CLR 03/M05 A2994 RMK AO2 SLP154 T00281050=
KISP 181656Z 30015G25KT 10SM CLR 01/M19 A2993 RMK AO2 SLP134 T00111189=
KITH 181656Z 32008KT 10SM BKN080 M03/M11 A2998 RMK AO2 SLP169 T10281111=
KJFK 181651Z 31017G23KT 10SM FEW250 03/M21 A2996 RMK AO2 SLP144 T00331211=
KLGA 181651Z 32013KT 10SM CLR 02/M20 A2995 RMK AO2 SLP140 T00221200 $=
KMGJ 181654Z AUTO 31015G21KT 10SM CLR 02/M17 A2993 RMK AO2 SLP138 T00171172=
KMSS 181653Z AUTO 28007KT 10SM CLR M08/M22 A3004 RMK AO2 SLP182 T10781222 $=
KMSV 181656Z AUTO 32008KT 10SM CLR M03/M17 A2991 RMK AO2 SLP147 T10281167
KMTP 181654Z AUTO 30013G17KT 01/M17 A2990 RMK AO1 SLP125 T00061172 $=
KNYC 181651Z AUTO 30007G18KT 10SM CLR 02/M22 A2997 RMK AO2 SLP140 T00221217 $=
KOGS 181655Z AUTO 00000KT 10SM CLR M01/M21 A3002 RMK AO2 T10131214=
KOLE 181655Z AUTO 28006KT 230V340 10SM CLR 01/M12 A2991 RMK AO2=
KPBG 181653Z AUTO 33009KT 10SM CLR M07/M22 A2999 RMK AO2 SLP161 T10721222=
KPEO 181653Z AUTO VRB03KT 10SM CLR M01/M12 A2998 RMK AO2 SLP165 T10111117=
KPOU 181653Z VRB05KT 10SM CLR 01/M20 A2995 RMK AO2 SLP140 T00061200=
KRME 181653Z 25007KT 10SM UP OVC100 M04/M18 A3001 RMK AO2 UPE03B32 SLP170 P0000
KROC 181654Z 27004KT 10SM SCT100 BKN140 02/M12 A2998 RMK AO2 SLP163 T00171122=
KSCH 181655Z 28009G17KT 15SM SKC M03/M18 A2997=
KSLK 181651Z AUTO 27010G18KT 230V330 10SM CLR M09/M25 A2986 RMK AO2 SLP155
 T10891250 TSNO=
KSWF 181645Z VRB05KT 20SM SKC 00/M15 A2994=
KSYR 181654Z 23004KT 10SM FEW070 OVC100 M04/M15 A3002 RMK AO2 SLP169 T10391150=

Return to: Albany Weather Page

Return to: Department of Atmospheric and Environmental Sciences Homepage

Comments to